Charleston Express — WDD6126 — position and weather

sailwx.info

Track history (hours):
 
Tides and Currents Weather Stations Pressure Air Temp Water Temp Dewpoint Dewpoint Depression Visibility Wind Speed Wind Dir Waves Ship Positions

Charleston Express

Owner: Marine Transport Management, Inc., Jacksonville, FL. More information available from US FCC via Universal Licensing System and Coast Guard Vessel Documentation Center.

Last reported at 2017-Dec-16 12:00 UTC. Time now 2017-Dec-16 15:11 UTC.
Position N 42°18' W 023°18'.

Length 243 m; draft 9.6 m.

Type: Ship. MMSI: 367168640.

Wind from 270 at 10 knots

Barometer 1027.8 mb
Air temperature 18.0 ° C
Visibility: greater than 10.8 NM
Dewpoint 14.5 ° C
Water temperature 16.0 ° C

Date/timePositionNaut miles runAvg speedWind from/ knotsBaromVisibWave heightAir tempDewpointWater temp
2017-Dec-16 12:00N 42°18' W 023°18'12821.3 270 / 101027.810.8 18.014.516.0
2017-Dec-16 06:00N 43°36' W 021°00'34520.3 170 / 151024.310.8 16.012.416.0
2017-Dec-15 13:00N 47°06' W 014°30'8914.8 340 / 201020.910.8 13.0 4.214.0
2017-Dec-15 07:00N 47°42' W 012°30'5012.5 320 / 451015.7 10.0 5.614.0
2017-Dec-15 03:00N 47°54' W 011°18'16511.0 320 / 451011.810.8 11.0 1.514.0
2017-Dec-14 12:00N 48°36' W 007°18'7612.6 320 / 48 10.8 11.0 1.6
2017-Dec-14 06:00N 49°18' W 005°42'4612.7 320 / 451001.2 10.0 5.712.0
2017-Dec-14 02:21N 49°38' W 004°38'514.4
2017-Dec-14 02:00N 49°36' W 004°30'390.3 290 / 501000.810.8 10.0 3.112.0
2017-Dec-14 01:57N 49°39' W 004°30'614.5
2017-Dec-14 01:30N 49°42' W 004°21'815.3
2017-Dec-14 00:58N 49°44' W 004°09'715.9
2017-Dec-14 00:30N 49°47' W 003°58'816.0
2017-Dec-14 00:00N 49°49' W 003°46'2115.0
2017-Dec-14 00:00N 49°48' W 003°48'1020.5 290 / 421000.710.8 8.0 5.812.0
2017-Dec-13 23:30N 49°52' W 003°34'917.3
2017-Dec-13 23:00N 49°55' W 003°21'917.5
2017-Dec-13 22:30N 49°58' W 003°09'917.5
2017-Dec-13 22:00N 50°01' W 002°56'178.4
2017-Dec-13 22:00N 50°00' W 002°54'816.8 320 / 58997.3 5.4 9.0 1.912.0
2017-Dec-13 21:30N 50°03' W 002°42'918.0
2017-Dec-13 21:00N 50°06' W 002°29'1110.6
2017-Dec-13 20:00N 50°06' W 002°12'2622.4 320 / 58994.1 5.4 5.0-0.2 6.0
2017-Dec-13 18:49N 50°13' W 001°32'616.1
2017-Dec-13 18:28N 50°14' W 001°24'1315.5
2017-Dec-13 17:39N 50°17' W 001°04'215.2
2017-Dec-13 17:30N 50°18' W 001°01'815.1
2017-Dec-13 17:00N 50°20' W 000°50'915.1
2017-Dec-13 16:25N 50°22' W 000°36'615.1
2017-Dec-13 16:00N 50°24' W 000°27'815.6
2017-Dec-13 15:30N 50°26' W 000°15'816.3
2017-Dec-13 15:00N 50°29' W 000°03'917.0
2017-Dec-13 14:30N 50°32' E 000°09'917.4
2017-Dec-13 14:00N 50°36' E 000°22'917.4
2017-Dec-13 13:30N 50°39' E 000°34'918.1
2017-Dec-13 13:01N 50°43' E 000°47'918.1
2017-Dec-13 12:30N 50°49' E 000°58'917.9
2017-Dec-13 12:00N 50°54' E 001°10'188.4
2017-Dec-13 12:00N 50°54' E 001°12'815.6 230 / 28998.510.8 10.0 8.010.0
2017-Dec-13 11:31N 51°00' E 001°19'816.6
2017-Dec-13 11:00N 51°05' E 001°29'815.3
2017-Dec-13 10:30N 51°11' E 001°38'714.8
2017-Dec-13 10:00N 51°18' E 001°39'2134.7
2017-Dec-13 10:00N 51°18' E 001°36'714.5 230 / 22998.910.8 9.0 6.9 8.0
2017-Dec-13 09:30N 51°25' E 001°34'510.9
2017-Dec-13 09:01N 51°28' E 001°27'815.9
2017-Dec-13 08:31N 51°29' E 001°14'611.7
2017-Dec-13 08:00N 51°30' E 001°05'22 2.1
2017-Dec-12 21:29N 51°30' E 000°30'0 0.0
2017-Dec-12 21:01N 51°30' E 000°30'0 0.0
2017-Dec-12 20:30N 51°30' E 000°30'0 0.0
2017-Dec-12 20:01N 51°30' E 000°30'0 0.0
2017-Dec-12 19:30N 51°30' E 000°30'0 0.1
2017-Dec-12 19:00N 51°30' E 000°30'1 2.5
2017-Dec-12 18:31N 51°30' E 000°32'5 9.6
2017-Dec-12 18:01N 51°30' E 000°39'612.2
2017-Dec-12 17:30N 51°29' E 000°49'815.2
2017-Dec-12 17:00N 51°30' E 001°01'1019.1
2017-Dec-12 16:29N 51°35' E 001°15'918.3
2017-Dec-12 16:00N 51°41' E 001°26'816.6
2017-Dec-12 15:31N 51°47' E 001°34'713.9
2017-Dec-12 15:00N 51°52' E 001°43'4 8.0
2017-Dec-12 14:30N 51°56' E 001°44'510.6
2017-Dec-12 14:01N 52°01' E 001°47'510.8
2017-Dec-12 13:31N 52°06' E 001°51'1 2.7
2017-Dec-12 13:00N 52°07' E 001°51'1 1.1
2017-Dec-12 12:30N 52°07' E 001°52'0 0.5
2017-Dec-12 12:00N 52°07' E 001°52'0 0.1
2017-Dec-12 11:30N 52°07' E 001°52'0 0.2
2017-Dec-12 11:00N 52°07' E 001°52'3201.8
2017-Dec-12 11:00N 52°06' E 001°48'3 6.0 320 / 111007.810.8 5.0-0.310.0
2017-Dec-12 10:30N 52°08' E 001°52'1 1.2
2017-Dec-12 10:00N 52°08' E 001°53'3 5.8
2017-Dec-12 09:31N 52°09' E 001°57'3 6.1
2017-Dec-12 09:00N 52°10' E 002°02'1 2.4
2017-Dec-12 08:30N 52°10' E 002°04'0 0.7
2017-Dec-12 08:00N 52°10' E 002°04'0 0.3
2017-Dec-12 07:30N 52°10' E 002°05'1 1.4
2017-Dec-12 07:00N 52°09' E 002°04'0 0.7
2017-Dec-12 06:30N 52°09' E 002°04'0 0.7
2017-Dec-12 06:00N 52°09' E 002°03'0 0.6
2017-Dec-12 05:31N 52°09' E 002°03'1 1.4
2017-Dec-12 05:00N 52°09' E 002°02'1 1.1
2017-Dec-12 04:30N 52°09' E 002°01'0 0.6
2017-Dec-12 04:01N 52°09' E 002°02'3 5.4
2017-Dec-12 03:30N 52°07' E 002°05'3 5.0
2017-Dec-12 03:00N 52°05' E 002°08'4 4.5
2017-Dec-12 02:03N 52°02' E 002°12'17 4.2
2017-Dec-11 22:06N 51°57' E 002°37'1 7.4
2017-Dec-11 22:00N 51°58' E 002°38'4 7.2
2017-Dec-11 21:30N 52°00' E 002°42'4 7.1
2017-Dec-11 21:00N 52°03' E 002°46'4 7.3
2017-Dec-11 20:30N 52°05' E 002°50'4 7.6
2017-Dec-11 20:00N 52°08' E 002°54'4 7.6
2017-Dec-11 19:30N 52°11' E 002°58'4 7.9
2017-Dec-11 19:00N 52°14' E 003°02'4 7.8
2017-Dec-11 18:30N 52°18' E 003°06'4 8.6
2017-Dec-11 18:00N 52°21' E 003°10'4 8.9
2017-Dec-11 17:30N 52°25' E 003°14'5 9.1
2017-Dec-11 17:00N 52°29' E 003°18'5 9.3
2017-Dec-11 16:30N 52°32' E 003°22'5 9.5
2017-Dec-11 15:56N 52°37' E 003°28'3910.2
2017-Dec-11 12:08N 53°04' E 004°12'210.5
2017-Dec-11 12:00N 53°06' E 004°12'9 8.9 070 / 21983.0 5.4 6.0 1.010.0
2017-Dec-11 10:58N 53°12' E 004°24'21 8.2
2017-Dec-11 08:22N 53°29' E 004°45'410.0
2017-Dec-11 08:00N 53°30' E 004°50'510.3
2017-Dec-11 07:30N 53°33' E 004°58'510.6
2017-Dec-11 07:00N 53°35' E 005°06'510.9
2017-Dec-11 06:30N 53°37' E 005°15'610.9
2017-Dec-11 05:59N 53°39' E 005°24'83 9.1
2017-Dec-10 20:55N 53°59' E 007°40'4 9.6
2017-Dec-10 20:29N 53°56' E 007°43'5 8.6
2017-Dec-10 19:54N 53°53' E 007°50'513.8
2017-Dec-10 19:30N 53°52' E 007°59'1019.8
2017-Dec-10 19:00N 53°45' E 008°12'1019.3
2017-Dec-10 18:30N 53°39' E 008°24'612.1
2017-Dec-10 18:00N 53°35' E 008°32'0 0.3
2017-Dec-10 17:28N 53°35' E 008°32'0 0.0
2017-Dec-10 16:58N 53°35' E 008°32'0 0.0
2017-Dec-10 16:28N 53°35' E 008°32'0 0.0
2017-Dec-10 15:58N 53°35' E 008°32'0 0.0
2017-Dec-10 15:28N 53°35' E 008°32'0 0.0
2017-Dec-10 14:58N 53°35' E 008°32'0 0.0
2017-Dec-10 14:28N 53°35' E 008°32'0 0.0
2017-Dec-10 13:58N 53°35' E 008°32'0 0.0
2017-Dec-10 13:28N 53°35' E 008°32'0 0.0
2017-Dec-10 12:58N 53°35' E 008°32'0 0.0
2017-Dec-10 12:28N 53°35' E 008°32'0 0.0
2017-Dec-10 11:58N 53°35' E 008°32'0 0.0
2017-Dec-10 11:28N 53°35' E 008°32'0 0.0
2017-Dec-10 10:58N 53°35' E 008°32'0 0.0
2017-Dec-10 10:28N 53°35' E 008°32'0 0.0
2017-Dec-10 09:58N 53°35' E 008°32'0 0.0
2017-Dec-10 09:28N 53°35' E 008°32'0 0.0
2017-Dec-10 08:58N 53°35' E 008°32'0 0.0
2017-Dec-10 08:28N 53°35' E 008°32'0 0.0
2017-Dec-10 07:58N 53°35' E 008°32'0 0.0
2017-Dec-10 07:28N 53°35' E 008°32'0 0.0
2017-Dec-10 06:58N 53°35' E 008°32'0 0.0
2017-Dec-10 06:28N 53°35' E 008°32'0 0.0
2017-Dec-10 05:58N 53°35' E 008°32'0 0.0
2017-Dec-10 05:28N 53°35' E 008°32'0 0.0
2017-Dec-10 04:58N 53°35' E 008°32'0 0.0
2017-Dec-10 04:28N 53°35' E 008°32'0 0.0
2017-Dec-10 03:58N 53°35' E 008°32'0 0.0
2017-Dec-10 03:28N 53°35' E 008°32'0 0.0
2017-Dec-10 02:58N 53°35' E 008°32'0 0.0
2017-Dec-10 02:28N 53°35' E 008°32'0 0.0
2017-Dec-10 01:58N 53°35' E 008°32'0 0.0
2017-Dec-10 01:28N 53°35' E 008°32'0 0.0
2017-Dec-10 00:58N 53°35' E 008°32'0 0.0
2017-Dec-10 00:31N 53°35' E 008°32'0 0.0
2017-Dec-09 23:58N 53°35' E 008°32'0 0.0
2017-Dec-09 23:28N 53°35' E 008°32'0 0.0
2017-Dec-09 22:58N 53°35' E 008°32'0 0.0
2017-Dec-09 22:28N 53°35' E 008°32'0 0.0
2017-Dec-09 21:58N 53°35' E 008°32'0 0.0
2017-Dec-09 21:28N 53°35' E 008°32'0 0.0
2017-Dec-09 20:58N 53°35' E 008°32'0 0.0
2017-Dec-09 20:28N 53°35' E 008°32'0 0.0
2017-Dec-09 19:58N 53°35' E 008°32'0 0.0
2017-Dec-09 19:28N 53°35' E 008°32'0 0.0
2017-Dec-09 18:58N 53°35' E 008°32'0 0.0
2017-Dec-09 18:31N 53°35' E 008°32'0 0.0
2017-Dec-09 17:58N 53°35' E 008°32'0 0.0
2017-Dec-09 17:28N 53°35' E 008°32'0 0.0
2017-Dec-09 17:00N 53°35' E 008°32'1 1.9
2017-Dec-09 16:30N 53°36' E 008°31'612.2
2017-Dec-09 16:00N 53°40' E 008°23'1019.3
2017-Dec-09 15:30N 53°46' E 008°11'918.5
2017-Dec-09 15:00N 53°51' E 007°58'815.4
2017-Dec-09 14:30N 53°53' E 007°45'611.5
2017-Dec-09 14:00N 53°54' E 007°35'6912.8
2017-Dec-09 08:39N 53°39' E 005°42'312.9
2017-Dec-09 08:27N 53°38' E 005°38'613.1
2017-Dec-09 07:57N 53°41' E 005°28'15 3.4
2017-Dec-09 03:41N 53°47' E 005°05'1 4.6
2017-Dec-09 03:26N 53°45' E 005°05'2 4.6
2017-Dec-09 02:59N 53°43' E 005°05'2 4.4
2017-Dec-09 02:31N 53°41' E 005°05'2 4.3
2017-Dec-09 02:01N 53°39' E 005°05'2 4.4
2017-Dec-09 01:30N 53°37' E 005°04'4 7.6
2017-Dec-09 01:01N 53°33' E 005°04'611.9
2017-Dec-09 00:30N 53°29' E 004°57'510.8
2017-Dec-09 00:01N 53°26' E 004°49'611.0
2017-Dec-08 23:30N 53°22' E 004°42'5 9.5
2017-Dec-08 23:00N 53°18' E 004°38'510.1
2017-Dec-08 22:30N 53°14' E 004°34'5 9.9
2017-Dec-08 22:00N 53°10' E 004°30'510.2
2017-Dec-08 21:30N 53°05' E 004°25'510.5
2017-Dec-08 21:00N 53°01' E 004°21'510.4
2017-Dec-08 20:30N 52°56' E 004°16'510.4
2017-Dec-08 20:00N 52°52' E 004°13'5 9.4
2017-Dec-08 19:30N 52°47' E 004°10'4 8.5
2017-Dec-08 19:00N 52°44' E 004°06'510.8
2017-Dec-08 18:30N 52°40' E 003°60'510.9
2017-Dec-08 18:00N 52°36' E 003°53'5 9.8
2017-Dec-08 17:30N 52°33' E 003°47'4 8.7
2017-Dec-08 17:00N 52°30' E 003°42'4 7.4
2017-Dec-08 16:30N 52°27' E 003°38'4 7.7
2017-Dec-08 16:00N 52°24' E 003°34'4 7.3
2017-Dec-08 15:29N 52°22' E 003°29'4 7.1
2017-Dec-08 14:55N 52°19' E 003°25'3 7.1
2017-Dec-08 14:29N 52°17' E 003°21'3 6.7
2017-Dec-08 14:00N 52°14' E 003°17'3 6.5
2017-Dec-08 13:30N 52°12' E 003°13'3 6.2
2017-Dec-08 12:59N 52°10' E 003°10'3 5.8
2017-Dec-08 12:29N 52°07' E 003°07'3 5.9
2017-Dec-08 12:00N 52°05' E 003°05'184.6
2017-Dec-08 12:00N 52°06' E 003°06'4 8.0 140 / 191009.210.8 7.0-0.8 8.0
2017-Dec-08 11:30N 52°02' E 003°04'21 6.2
2017-Dec-08 08:12N 51°43' E 003°14'2 8.2
2017-Dec-08 08:00N 51°41' E 003°13'714.7
2017-Dec-08 07:31N 51°34' E 003°10'918.0
2017-Dec-08 07:01N 51°28' E 003°00'713.0
2017-Dec-08 06:31N 51°24' E 003°09'917.1
2017-Dec-08 06:01N 51°25' E 003°23'815.8
2017-Dec-08 05:30N 51°26' E 003°35'3 5.1
2017-Dec-08 05:00N 51°26' E 003°39'612.4
2017-Dec-08 04:30N 51°22' E 003°46'612.0
2017-Dec-08 04:00N 51°22' E 003°55'510.4
2017-Dec-08 03:30N 51°26' E 004°00'510.1
2017-Dec-08 03:00N 51°22' E 004°05'5 9.7
2017-Dec-08 02:30N 51°23' E 004°13'3 6.6
2017-Dec-08 02:01N 51°20' E 004°16'0 0.0
2017-Dec-08 01:31N 51°21' E 004°16'0 0.0
2017-Dec-08 01:01N 51°21' E 004°16'0 0.0
2017-Dec-08 00:30N 51°21' E 004°16'0 0.0
2017-Dec-08 00:01N 51°21' E 004°16'0 0.0
2017-Dec-07 23:31N 51°21' E 004°16'0 0.0
2017-Dec-07 23:00N 51°21' E 004°16'0 0.0
2017-Dec-07 22:31N 51°21' E 004°16'0 0.0
2017-Dec-07 22:01N 51°21' E 004°16'0 0.0
2017-Dec-07 21:30N 51°21' E 004°16'0 0.0
2017-Dec-07 21:01N 51°21' E 004°16'0 0.0
2017-Dec-07 20:30N 51°21' E 004°16'0 0.0
2017-Dec-07 20:01N 51°21' E 004°16'0 0.0
2017-Dec-07 19:30N 51°21' E 004°16'0 0.0
2017-Dec-07 18:59N 51°21' E 004°16'0 0.0
2017-Dec-07 18:31N 51°21' E 004°16'0 0.0
2017-Dec-07 18:00N 51°20' E 004°16'0 0.0
2017-Dec-07 17:31N 51°21' E 004°16'0 0.0
2017-Dec-07 17:01N 51°21' E 004°16'0 0.0
2017-Dec-07 16:31N 51°20' E 004°16'0 0.0
2017-Dec-07 16:00N 51°21' E 004°16'0 0.0
2017-Dec-07 15:31N 51°21' E 004°16'0 0.0
2017-Dec-07 15:00N 51°21' E 004°16'0 0.0
2017-Dec-07 14:30N 51°20' E 004°16'0 0.0
2017-Dec-07 13:59N 51°20' E 004°16'0 0.0
2017-Dec-07 13:29N 51°21' E 004°16'0 0.0
2017-Dec-07 13:00N 51°21' E 004°16'0 0.0
2017-Dec-07 12:31N 51°21' E 004°16'0 0.0
2017-Dec-07 12:01N 51°21' E 004°16'0 0.0
2017-Dec-07 11:29N 51°21' E 004°16'0 0.0
2017-Dec-07 11:01N 51°21' E 004°16'0 0.0
2017-Dec-07 10:31N 51°21' E 004°16'0 0.0
2017-Dec-07 10:01N 51°21' E 004°16'0 0.0
2017-Dec-07 09:31N 51°20' E 004°16'0 0.0
2017-Dec-07 09:00N 51°21' E 004°16'0 0.0
2017-Dec-07 08:31N 51°21' E 004°16'0 0.0
2017-Dec-07 08:00N 51°21' E 004°16'0 0.0
2017-Dec-07 07:31N 51°20' E 004°16'0 0.0
2017-Dec-07 07:01N 51°21' E 004°16'0 0.0
2017-Dec-07 06:30N 51°20' E 004°16'0 0.0
2017-Dec-07 06:00N 51°21' E 004°16'0 0.0
2017-Dec-07 05:31N 51°20' E 004°16'0 0.0
2017-Dec-07 05:00N 51°21' E 004°16'0 0.0
2017-Dec-07 04:31N 51°21' E 004°16'0 0.0
2017-Dec-07 04:00N 51°20' E 004°16'0 0.0
2017-Dec-07 03:28N 51°20' E 004°16'0 0.0
2017-Dec-07 03:01N 51°21' E 004°16'0 0.3
2017-Dec-07 02:30N 51°21' E 004°16'3 6.6
2017-Dec-07 02:01N 51°23' E 004°13'611.2
2017-Dec-07 01:30N 51°22' E 004°04'4 8.8
2017-Dec-07 01:00N 51°24' E 003°58'713.4
2017-Dec-07 00:30N 51°21' E 003°49'713.2
2017-Dec-07 00:00N 51°26' E 003°41'5 9.8
2017-Dec-06 23:30N 51°25' E 003°34'611.9
2017-Dec-06 23:00N 51°25' E 003°24'4236.8
2017-Dec-06 23:00N 51°24' E 003°18'3 5.9 180 / 181023.1 5.4 9.0 1.812.0
2017-Dec-06 22:31N 51°24' E 003°13'612.9
2017-Dec-06 22:01N 51°25' E 003°03'714.3
2017-Dec-06 21:31N 51°22' E 002°53'612.1
2017-Dec-06 21:00N 51°22' E 002°43'  
Track history (hours):
 
Tides and Currents Weather Stations Pressure Air Temp Water Temp Dewpoint Dewpoint Depression Visibility Wind Speed Wind Dir Waves Ship Positions

Charleston Express

Owner: Marine Transport Management, Inc., Jacksonville, FL. More information available from US FCC via Universal Licensing System and Coast Guard Vessel Documentation Center.

Last reported at 2017-Dec-16 12:00 UTC. Time now 2017-Dec-16 15:11 UTC.
Position N 42°18' W 023°18'.

Length 243 m; draft 9.6 m.

Type: Ship. MMSI: 367168640.

Wind from 270 at 10 knots

Barometer 1027.8 mb
Air temperature 18.0 ° C
Visibility: greater than 10.8 NM
Dewpoint 14.5 ° C
Water temperature 16.0 ° C

Date/timePositionNaut miles runAvg speedWind from/ knotsBaromVisibWave heightAir tempDewpointWater temp
2017-Dec-16 12:00N 42°18' W 023°18'12821.3 270 / 101027.810.8 18.014.516.0
2017-Dec-16 06:00N 43°36' W 021°00'34520.3 170 / 151024.310.8 16.012.416.0
2017-Dec-15 13:00N 47°06' W 014°30'8914.8 340 / 201020.910.8 13.0 4.214.0
2017-Dec-15 07:00N 47°42' W 012°30'5012.5 320 / 451015.7 10.0 5.614.0
2017-Dec-15 03:00N 47°54' W 011°18'16511.0 320 / 451011.810.8 11.0 1.514.0
2017-Dec-14 12:00N 48°36' W 007°18'7612.6 320 / 48 10.8 11.0 1.6
2017-Dec-14 06:00N 49°18' W 005°42'4612.7 320 / 451001.2 10.0 5.712.0
2017-Dec-14 02:21N 49°38' W 004°38'514.4
2017-Dec-14 02:00N 49°36' W 004°30'390.3 290 / 501000.810.8 10.0 3.112.0
2017-Dec-14 01:57N 49°39' W 004°30'614.5
2017-Dec-14 01:30N 49°42' W 004°21'815.3
2017-Dec-14 00:58N 49°44' W 004°09'715.9
2017-Dec-14 00:30N 49°47' W 003°58'816.0
2017-Dec-14 00:00N 49°49' W 003°46'2115.0
2017-Dec-14 00:00N 49°48' W 003°48'1020.5 290 / 421000.710.8 8.0 5.812.0
2017-Dec-13 23:30N 49°52' W 003°34'917.3
2017-Dec-13 23:00N 49°55' W 003°21'917.5
2017-Dec-13 22:30N 49°58' W 003°09'917.5
2017-Dec-13 22:00N 50°01' W 002°56'178.4
2017-Dec-13 22:00N 50°00' W 002°54'816.8 320 / 58997.3 5.4 9.0 1.912.0
2017-Dec-13 21:30N 50°03' W 002°42'918.0
2017-Dec-13 21:00N 50°06' W 002°29'1110.6
2017-Dec-13 20:00N 50°06' W 002°12'2622.4 320 / 58994.1 5.4 5.0-0.2 6.0
2017-Dec-13 18:49N 50°13' W 001°32'616.1
2017-Dec-13 18:28N 50°14' W 001°24'1315.5
2017-Dec-13 17:39N 50°17' W 001°04'215.2
2017-Dec-13 17:30N 50°18' W 001°01'815.1
2017-Dec-13 17:00N 50°20' W 000°50'915.1
2017-Dec-13 16:25N 50°22' W 000°36'615.1
2017-Dec-13 16:00N 50°24' W 000°27'815.6
2017-Dec-13 15:30N 50°26' W 000°15'816.3
2017-Dec-13 15:00N 50°29' W 000°03'917.0
2017-Dec-13 14:30N 50°32' E 000°09'917.4
2017-Dec-13 14:00N 50°36' E 000°22'917.4
2017-Dec-13 13:30N 50°39' E 000°34'918.1
2017-Dec-13 13:01N 50°43' E 000°47'918.1
2017-Dec-13 12:30N 50°49' E 000°58'917.9
2017-Dec-13 12:00N 50°54' E 001°10'188.4
2017-Dec-13 12:00N 50°54' E 001°12'815.6 230 / 28998.510.8 10.0 8.010.0
2017-Dec-13 11:31N 51°00' E 001°19'816.6
2017-Dec-13 11:00N 51°05' E 001°29'815.3
2017-Dec-13 10:30N 51°11' E 001°38'714.8
2017-Dec-13 10:00N 51°18' E 001°39'2134.7
2017-Dec-13 10:00N 51°18' E 001°36'714.5 230 / 22998.910.8 9.0 6.9 8.0
2017-Dec-13 09:30N 51°25' E 001°34'510.9
2017-Dec-13 09:01N 51°28' E 001°27'815.9
2017-Dec-13 08:31N 51°29' E 001°14'611.7
2017-Dec-13 08:00N 51°30' E 001°05'22 2.1
2017-Dec-12 21:29N 51°30' E 000°30'0 0.0
2017-Dec-12 21:01N 51°30' E 000°30'0 0.0
2017-Dec-12 20:30N 51°30' E 000°30'0 0.0
2017-Dec-12 20:01N 51°30' E 000°30'0 0.0
2017-Dec-12 19:30N 51°30' E 000°30'0 0.1
2017-Dec-12 19:00N 51°30' E 000°30'1 2.5
2017-Dec-12 18:31N 51°30' E 000°32'5 9.6
2017-Dec-12 18:01N 51°30' E 000°39'612.2
2017-Dec-12 17:30N 51°29' E 000°49'815.2
2017-Dec-12 17:00N 51°30' E 001°01'1019.1
2017-Dec-12 16:29N 51°35' E 001°15'918.3
2017-Dec-12 16:00N 51°41' E 001°26'816.6
2017-Dec-12 15:31N 51°47' E 001°34'713.9
2017-Dec-12 15:00N 51°52' E 001°43'4 8.0
2017-Dec-12 14:30N 51°56' E 001°44'510.6
2017-Dec-12 14:01N 52°01' E 001°47'510.8
2017-Dec-12 13:31N 52°06' E 001°51'1 2.7
2017-Dec-12 13:00N 52°07' E 001°51'1 1.1
2017-Dec-12 12:30N 52°07' E 001°52'0 0.5
2017-Dec-12 12:00N 52°07' E 001°52'0 0.1
2017-Dec-12 11:30N 52°07' E 001°52'0 0.2
2017-Dec-12 11:00N 52°07' E 001°52'3201.8
2017-Dec-12 11:00N 52°06' E 001°48'3 6.0 320 / 111007.810.8 5.0-0.310.0
2017-Dec-12 10:30N 52°08' E 001°52'1 1.2
2017-Dec-12 10:00N 52°08' E 001°53'3 5.8
2017-Dec-12 09:31N 52°09' E 001°57'3 6.1
2017-Dec-12 09:00N 52°10' E 002°02'1 2.4
2017-Dec-12 08:30N 52°10' E 002°04'0 0.7
2017-Dec-12 08:00N 52°10' E 002°04'0 0.3
2017-Dec-12 07:30N 52°10' E 002°05'1 1.4
2017-Dec-12 07:00N 52°09' E 002°04'0 0.7
2017-Dec-12 06:30N 52°09' E 002°04'0 0.7
2017-Dec-12 06:00N 52°09' E 002°03'0 0.6
2017-Dec-12 05:31N 52°09' E 002°03'1 1.4
2017-Dec-12 05:00N 52°09' E 002°02'1 1.1
2017-Dec-12 04:30N 52°09' E 002°01'0 0.6
2017-Dec-12 04:01N 52°09' E 002°02'3 5.4
2017-Dec-12 03:30N 52°07' E 002°05'3 5.0
2017-Dec-12 03:00N 52°05' E 002°08'4 4.5
2017-Dec-12 02:03N 52°02' E 002°12'17 4.2
2017-Dec-11 22:06N 51°57' E 002°37'1 7.4
2017-Dec-11 22:00N 51°58' E 002°38'4 7.2
2017-Dec-11 21:30N 52°00' E 002°42'4 7.1
2017-Dec-11 21:00N 52°03' E 002°46'4 7.3
2017-Dec-11 20:30N 52°05' E 002°50'4 7.6
2017-Dec-11 20:00N 52°08' E 002°54'4 7.6
2017-Dec-11 19:30N 52°11' E 002°58'4 7.9
2017-Dec-11 19:00N 52°14' E 003°02'4 7.8
2017-Dec-11 18:30N 52°18' E 003°06'4 8.6
2017-Dec-11 18:00N 52°21' E 003°10'4 8.9
2017-Dec-11 17:30N 52°25' E 003°14'5 9.1
2017-Dec-11 17:00N 52°29' E 003°18'5 9.3
2017-Dec-11 16:30N 52°32' E 003°22'5 9.5
2017-Dec-11 15:56N 52°37' E 003°28'3910.2
2017-Dec-11 12:08N 53°04' E 004°12'210.5
2017-Dec-11 12:00N 53°06' E 004°12'9 8.9 070 / 21983.0 5.4 6.0 1.010.0
2017-Dec-11 10:58N 53°12' E 004°24'21 8.2
2017-Dec-11 08:22N 53°29' E 004°45'410.0
2017-Dec-11 08:00N 53°30' E 004°50'510.3
2017-Dec-11 07:30N 53°33' E 004°58'510.6
2017-Dec-11 07:00N 53°35' E 005°06'510.9
2017-Dec-11 06:30N 53°37' E 005°15'610.9
2017-Dec-11 05:59N 53°39' E 005°24'83 9.1
2017-Dec-10 20:55N 53°59' E 007°40'4 9.6
2017-Dec-10 20:29N 53°56' E 007°43'5 8.6
2017-Dec-10 19:54N 53°53' E 007°50'513.8
2017-Dec-10 19:30N 53°52' E 007°59'1019.8
2017-Dec-10 19:00N 53°45' E 008°12'1019.3
2017-Dec-10 18:30N 53°39' E 008°24'612.1
2017-Dec-10 18:00N 53°35' E 008°32'0 0.3
2017-Dec-10 17:28N 53°35' E 008°32'0 0.0
2017-Dec-10 16:58N 53°35' E 008°32'0 0.0
2017-Dec-10 16:28N 53°35' E 008°32'0 0.0
2017-Dec-10 15:58N 53°35' E 008°32'0 0.0
2017-Dec-10 15:28N 53°35' E 008°32'0 0.0
2017-Dec-10 14:58N 53°35' E 008°32'0 0.0
2017-Dec-10 14:28N 53°35' E 008°32'0 0.0
2017-Dec-10 13:58N 53°35' E 008°32'0 0.0
2017-Dec-10 13:28N 53°35' E 008°32'0 0.0
2017-Dec-10 12:58N 53°35' E 008°32'0 0.0
2017-Dec-10 12:28N 53°35' E 008°32'0 0.0
2017-Dec-10 11:58N 53°35' E 008°32'0 0.0
2017-Dec-10 11:28N 53°35' E 008°32'0 0.0
2017-Dec-10 10:58N 53°35' E 008°32'0 0.0
2017-Dec-10 10:28N 53°35' E 008°32'0 0.0
2017-Dec-10 09:58N 53°35' E 008°32'0 0.0
2017-Dec-10 09:28N 53°35' E 008°32'0 0.0
2017-Dec-10 08:58N 53°35' E 008°32'0 0.0
2017-Dec-10 08:28N 53°35' E 008°32'0 0.0
2017-Dec-10 07:58N 53°35' E 008°32'0 0.0
2017-Dec-10 07:28N 53°35' E 008°32'0 0.0
2017-Dec-10 06:58N 53°35' E 008°32'0 0.0
2017-Dec-10 06:28N 53°35' E 008°32'0 0.0
2017-Dec-10 05:58N 53°35' E 008°32'0 0.0
2017-Dec-10 05:28N 53°35' E 008°32'0 0.0
2017-Dec-10 04:58N 53°35' E 008°32'0 0.0
2017-Dec-10 04:28N 53°35' E 008°32'0 0.0
2017-Dec-10 03:58N 53°35' E 008°32'0 0.0
2017-Dec-10 03:28N 53°35' E 008°32'0 0.0
2017-Dec-10 02:58N 53°35' E 008°32'0 0.0
2017-Dec-10 02:28N 53°35' E 008°32'0 0.0
2017-Dec-10 01:58N 53°35' E 008°32'0 0.0
2017-Dec-10 01:28N 53°35' E 008°32'0 0.0
2017-Dec-10 00:58N 53°35' E 008°32'0 0.0
2017-Dec-10 00:31N 53°35' E 008°32'0 0.0
2017-Dec-09 23:58N 53°35' E 008°32'0 0.0
2017-Dec-09 23:28N 53°35' E 008°32'0 0.0
2017-Dec-09 22:58N 53°35' E 008°32'0 0.0
2017-Dec-09 22:28N 53°35' E 008°32'0 0.0
2017-Dec-09 21:58N 53°35' E 008°32'0 0.0
2017-Dec-09 21:28N 53°35' E 008°32'0 0.0
2017-Dec-09 20:58N 53°35' E 008°32'0 0.0
2017-Dec-09 20:28N 53°35' E 008°32'0 0.0
2017-Dec-09 19:58N 53°35' E 008°32'0 0.0
2017-Dec-09 19:28N 53°35' E 008°32'0 0.0
2017-Dec-09 18:58N 53°35' E 008°32'0 0.0
2017-Dec-09 18:31N 53°35' E 008°32'0 0.0
2017-Dec-09 17:58N 53°35' E 008°32'0 0.0
2017-Dec-09 17:28N 53°35' E 008°32'0 0.0
2017-Dec-09 17:00N 53°35' E 008°32'1 1.9
2017-Dec-09 16:30N 53°36' E 008°31'612.2
2017-Dec-09 16:00N 53°40' E 008°23'1019.3
2017-Dec-09 15:30N 53°46' E 008°11'918.5
2017-Dec-09 15:00N 53°51' E 007°58'815.4
2017-Dec-09 14:30N 53°53' E 007°45'611.5
2017-Dec-09 14:00N 53°54' E 007°35'6912.8
2017-Dec-09 08:39N 53°39' E 005°42'312.9
2017-Dec-09 08:27N 53°38' E 005°38'613.1
2017-Dec-09 07:57N 53°41' E 005°28'15 3.4
2017-Dec-09 03:41N 53°47' E 005°05'1 4.6
2017-Dec-09 03:26N 53°45' E 005°05'2 4.6
2017-Dec-09 02:59N 53°43' E 005°05'2 4.4
2017-Dec-09 02:31N 53°41' E 005°05'2 4.3
2017-Dec-09 02:01N 53°39' E 005°05'2 4.4
2017-Dec-09 01:30N 53°37' E 005°04'4 7.6
2017-Dec-09 01:01N 53°33' E 005°04'611.9
2017-Dec-09 00:30N 53°29' E 004°57'510.8
2017-Dec-09 00:01N 53°26' E 004°49'611.0
2017-Dec-08 23:30N 53°22' E 004°42'5 9.5
2017-Dec-08 23:00N 53°18' E 004°38'510.1
2017-Dec-08 22:30N 53°14' E 004°34'5 9.9
2017-Dec-08 22:00N 53°10' E 004°30'510.2
2017-Dec-08 21:30N 53°05' E 004°25'510.5
2017-Dec-08 21:00N 53°01' E 004°21'510.4
2017-Dec-08 20:30N 52°56' E 004°16'510.4
2017-Dec-08 20:00N 52°52' E 004°13'5 9.4
2017-Dec-08 19:30N 52°47' E 004°10'4 8.5
2017-Dec-08 19:00N 52°44' E 004°06'510.8
2017-Dec-08 18:30N 52°40' E 003°60'510.9
2017-Dec-08 18:00N 52°36' E 003°53'5 9.8
2017-Dec-08 17:30N 52°33' E 003°47'4 8.7
2017-Dec-08 17:00N 52°30' E 003°42'4 7.4
2017-Dec-08 16:30N 52°27' E 003°38'4 7.7
2017-Dec-08 16:00N 52°24' E 003°34'4 7.3
2017-Dec-08 15:29N 52°22' E 003°29'4 7.1
2017-Dec-08 14:55N 52°19' E 003°25'3 7.1
2017-Dec-08 14:29N 52°17' E 003°21'3 6.7
2017-Dec-08 14:00N 52°14' E 003°17'3 6.5
2017-Dec-08 13:30N 52°12' E 003°13'3 6.2
2017-Dec-08 12:59N 52°10' E 003°10'3 5.8
2017-Dec-08 12:29N 52°07' E 003°07'3 5.9
2017-Dec-08 12:00N 52°05' E 003°05'184.6
2017-Dec-08 12:00N 52°06' E 003°06'4 8.0 140 / 191009.210.8 7.0-0.8 8.0
2017-Dec-08 11:30N 52°02' E 003°04'21 6.2
2017-Dec-08 08:12N 51°43' E 003°14'2 8.2
2017-Dec-08 08:00N 51°41' E 003°13'714.7
2017-Dec-08 07:31N 51°34' E 003°10'918.0
2017-Dec-08 07:01N 51°28' E 003°00'713.0
2017-Dec-08 06:31N 51°24' E 003°09'917.1
2017-Dec-08 06:01N 51°25' E 003°23'815.8
2017-Dec-08 05:30N 51°26' E 003°35'3 5.1
2017-Dec-08 05:00N 51°26' E 003°39'612.4
2017-Dec-08 04:30N 51°22' E 003°46'612.0
2017-Dec-08 04:00N 51°22' E 003°55'510.4
2017-Dec-08 03:30N 51°26' E 004°00'510.1
2017-Dec-08 03:00N 51°22' E 004°05'5 9.7
2017-Dec-08 02:30N 51°23' E 004°13'3 6.6
2017-Dec-08 02:01N 51°20' E 004°16'0 0.0
2017-Dec-08 01:31N 51°21' E 004°16'0 0.0
2017-Dec-08 01:01N 51°21' E 004°16'0 0.0
2017-Dec-08 00:30N 51°21' E 004°16'0 0.0
2017-Dec-08 00:01N 51°21' E 004°16'0 0.0
2017-Dec-07 23:31N 51°21' E 004°16'0 0.0
2017-Dec-07 23:00N 51°21' E 004°16'0 0.0
2017-Dec-07 22:31N 51°21' E 004°16'0 0.0
2017-Dec-07 22:01N 51°21' E 004°16'0 0.0
2017-Dec-07 21:30N 51°21' E 004°16'0 0.0
2017-Dec-07 21:01N 51°21' E 004°16'0 0.0
2017-Dec-07 20:30N 51°21' E 004°16'0 0.0
2017-Dec-07 20:01N 51°21' E 004°16'0 0.0
2017-Dec-07 19:30N 51°21' E 004°16'0 0.0
2017-Dec-07 18:59N 51°21' E 004°16'0 0.0
2017-Dec-07 18:31N 51°21' E 004°16'0 0.0
2017-Dec-07 18:00N 51°20' E 004°16'0 0.0
2017-Dec-07 17:31N 51°21' E 004°16'0 0.0
2017-Dec-07 17:01N 51°21' E 004°16'0 0.0
2017-Dec-07 16:31N 51°20' E 004°16'0 0.0
2017-Dec-07 16:00N 51°21' E 004°16'0 0.0
2017-Dec-07 15:31N 51°21' E 004°16'0 0.0
2017-Dec-07 15:00N 51°21' E 004°16'0 0.0
2017-Dec-07 14:30N 51°20' E 004°16'0 0.0
2017-Dec-07 13:59N 51°20' E 004°16'0 0.0
2017-Dec-07 13:29N 51°21' E 004°16'0 0.0
2017-Dec-07 13:00N 51°21' E 004°16'0 0.0
2017-Dec-07 12:31N 51°21' E 004°16'0 0.0
2017-Dec-07 12:01N 51°21' E 004°16'0 0.0
2017-Dec-07 11:29N 51°21' E 004°16'0 0.0
2017-Dec-07 11:01N 51°21' E 004°16'0 0.0
2017-Dec-07 10:31N 51°21' E 004°16'0 0.0
2017-Dec-07 10:01N 51°21' E 004°16'0 0.0
2017-Dec-07 09:31N 51°20' E 004°16'0 0.0
2017-Dec-07 09:00N 51°21' E 004°16'0 0.0
2017-Dec-07 08:31N 51°21' E 004°16'0 0.0
2017-Dec-07 08:00N 51°21' E 004°16'0 0.0
2017-Dec-07 07:31N 51°20' E 004°16'0 0.0
2017-Dec-07 07:01N 51°21' E 004°16'0 0.0
2017-Dec-07 06:30N 51°20' E 004°16'0 0.0
2017-Dec-07 06:00N 51°21' E 004°16'0 0.0
2017-Dec-07 05:31N 51°20' E 004°16'0 0.0
2017-Dec-07 05:00N 51°21' E 004°16'0 0.0
2017-Dec-07 04:31N 51°21' E 004°16'0 0.0
2017-Dec-07 04:00N 51°20' E 004°16'0 0.0
2017-Dec-07 03:28N 51°20' E 004°16'0 0.0
2017-Dec-07 03:01N 51°21' E 004°16'0 0.3
2017-Dec-07 02:30N 51°21' E 004°16'3 6.6
2017-Dec-07 02:01N 51°23' E 004°13'611.2
2017-Dec-07 01:30N 51°22' E 004°04'4 8.8
2017-Dec-07 01:00N 51°24' E 003°58'713.4
2017-Dec-07 00:30N 51°21' E 003°49'713.2
2017-Dec-07 00:00N 51°26' E 003°41'5 9.8
2017-Dec-06 23:30N 51°25' E 003°34'611.9
2017-Dec-06 23:00N 51°25' E 003°24'4236.8
2017-Dec-06 23:00N 51°24' E 003°18'3 5.9 180 / 181023.1 5.4 9.0 1.812.0
2017-Dec-06 22:31N 51°24' E 003°13'612.9
2017-Dec-06 22:01N 51°25' E 003°03'714.3
2017-Dec-06 21:31N 51°22' E 002°53'612.1
2017-Dec-06 21:00N 51°22' E 002°43'  

Dump ship's entire track history